createdAt,value
2018-05-31T00:02:21.355Z,17.10
2018-05-31T00:04:48.983Z,17.00
2018-05-31T00:07:16.610Z,17.00
2018-05-31T00:09:44.210Z,17.00
2018-05-31T00:12:12.600Z,17.10
2018-05-31T00:14:40.237Z,17.10
2018-05-31T00:17:08.608Z,17.00
2018-05-31T00:19:36.210Z,17.00
2018-05-31T00:22:03.859Z,17.00
2018-05-31T00:24:31.456Z,16.90
2018-05-31T00:26:59.099Z,16.80
2018-05-31T00:29:26.743Z,16.80
2018-05-31T00:31:54.379Z,16.70
2018-05-31T00:34:22.002Z,16.70
2018-05-31T00:36:49.647Z,16.70
2018-05-31T00:39:17.279Z,16.60
2018-05-31T00:41:45.662Z,16.60
2018-05-31T00:44:13.297Z,16.60
2018-05-31T00:46:41.698Z,16.60
2018-05-31T00:49:09.340Z,16.60
2018-05-31T00:51:36.963Z,16.60
2018-05-31T00:54:04.629Z,16.60
2018-05-31T00:56:32.261Z,16.60
2018-05-31T00:58:59.900Z,16.60
2018-05-31T01:01:27.542Z,16.60
2018-05-31T01:03:55.919Z,16.60
2018-05-31T01:06:24.340Z,16.60
2018-05-31T01:08:51.929Z,16.60
2018-05-31T01:11:19.584Z,16.60
2018-05-31T01:13:47.198Z,16.60
2018-05-31T01:16:14.829Z,16.60
2018-05-31T01:18:43.250Z,16.60
2018-05-31T01:21:10.882Z,16.50
2018-05-31T01:23:39.279Z,16.50
2018-05-31T01:26:06.914Z,16.50
2018-05-31T01:28:35.309Z,16.40
2018-05-31T01:31:02.968Z,16.30
2018-05-31T01:33:30.575Z,16.30
2018-05-31T01:35:58.169Z,16.30
2018-05-31T01:38:32.606Z,16.30
2018-05-31T01:41:01.027Z,16.30
2018-05-31T01:43:28.710Z,16.30
2018-05-31T01:45:56.360Z,16.30
2018-05-31T01:48:24.025Z,16.20
2018-05-31T01:50:51.644Z,16.20
2018-05-31T01:53:19.275Z,16.20
2018-05-31T01:55:47.691Z,16.20
2018-05-31T01:58:15.348Z,16.10
2018-05-31T02:00:42.999Z,16.10
2018-05-31T02:03:10.612Z,16.10
2018-05-31T02:05:38.268Z,16.10
2018-05-31T02:08:05.929Z,16.20
2018-05-31T02:10:33.540Z,16.20
2018-05-31T02:13:01.181Z,16.20
2018-05-31T02:15:29.597Z,16.20
2018-05-31T02:17:57.211Z,16.20
2018-05-31T02:20:25.670Z,16.20
2018-05-31T02:22:53.290Z,16.20
2018-05-31T02:25:20.910Z,16.10
2018-05-31T02:27:49.297Z,16.10
2018-05-31T02:30:17.730Z,16.10
2018-05-31T02:32:45.376Z,16.10
2018-05-31T02:35:12.989Z,16.10
2018-05-31T02:37:40.613Z,16.10
2018-05-31T02:40:08.227Z,16.00
2018-05-31T02:42:35.889Z,16.00
2018-05-31T02:45:04.364Z,15.90
2018-05-31T02:47:32.744Z,15.90
2018-05-31T02:50:01.149Z,15.90
2018-05-31T02:52:28.816Z,15.90
2018-05-31T02:54:56.459Z,15.80
2018-05-31T02:57:24.887Z,15.80
2018-05-31T02:59:52.757Z,15.80
2018-05-31T03:02:20.361Z,15.70
2018-05-31T03:04:47.993Z,15.70
2018-05-31T03:07:15.627Z,15.70
2018-05-31T03:09:43.240Z,15.70
2018-05-31T03:12:10.871Z,15.70
2018-05-31T03:14:40.160Z,15.70
2018-05-31T03:17:09.250Z,15.80
2018-05-31T03:19:36.929Z,15.70
2018-05-31T03:22:05.345Z,15.80
2018-05-31T03:24:32.960Z,15.80
2018-05-31T03:27:00.610Z,15.90
2018-05-31T03:29:28.340Z,15.90
2018-05-31T03:31:56.170Z,15.80
2018-05-31T03:34:24.710Z,15.80
2018-05-31T03:36:53.372Z,15.80
2018-05-31T03:39:21.234Z,15.70
2018-05-31T03:41:49.886Z,15.70
2018-05-31T03:44:17.923Z,15.70
2018-05-31T03:46:45.710Z,15.70
2018-05-31T03:49:14.209Z,15.80
2018-05-31T03:51:41.955Z,15.70
2018-05-31T03:54:10.609Z,15.70
2018-05-31T03:56:38.380Z,15.70
2018-05-31T03:59:06.154Z,15.80
2018-05-31T04:01:33.779Z,15.70
2018-05-31T04:04:01.366Z,15.70
2018-05-31T04:06:29.019Z,15.80
2018-05-31T04:08:56.617Z,15.70
2018-05-31T04:11:25.018Z,15.70
2018-05-31T04:13:52.617Z,15.70
2018-05-31T04:16:20.290Z,15.70
2018-05-31T04:18:47.913Z,15.60
2018-05-31T04:21:15.528Z,15.60
2018-05-31T04:23:43.175Z,15.60
2018-05-31T04:26:10.799Z,15.60
2018-05-31T04:28:38.456Z,15.60
2018-05-31T04:31:06.062Z,15.50
2018-05-31T04:33:33.739Z,15.50
2018-05-31T04:36:01.370Z,15.50
2018-05-31T04:38:28.979Z,15.60
2018-05-31T04:40:56.627Z,15.50
2018-05-31T04:43:25.032Z,15.60
2018-05-31T04:45:52.701Z,15.60
2018-05-31T04:48:20.359Z,15.60
2018-05-31T04:50:47.959Z,15.60
2018-05-31T04:53:15.568Z,15.70
2018-05-31T04:55:43.218Z,15.80
2018-05-31T04:58:11.589Z,15.90
2018-05-31T05:00:40.001Z,15.90
2018-05-31T05:03:07.851Z,15.80
2018-05-31T05:05:35.769Z,15.90
2018-05-31T05:08:04.400Z,15.90
2018-05-31T05:10:32.145Z,15.90
2018-05-31T05:12:59.989Z,16.00
2018-05-31T05:15:27.932Z,16.00
2018-05-31T05:17:55.849Z,16.00
2018-05-31T05:20:23.715Z,16.00
2018-05-31T05:22:51.677Z,16.10
2018-05-31T05:25:20.228Z,16.10
2018-05-31T05:27:48.881Z,16.20
2018-05-31T05:30:16.767Z,16.20
2018-05-31T05:32:44.625Z,16.20
2018-05-31T05:35:12.603Z,16.30
2018-05-31T05:37:41.308Z,16.40
2018-05-31T05:40:09.994Z,16.50
2018-05-31T05:42:38.669Z,16.50
2018-05-31T05:45:06.490Z,16.60
2018-05-31T05:47:34.449Z,16.70
2018-05-31T05:50:02.221Z,16.90
2018-05-31T05:52:31.227Z,17.00
2018-05-31T05:55:01.109Z,17.10
2018-05-31T05:57:28.975Z,17.20
2018-05-31T05:59:56.918Z,17.30
2018-05-31T06:02:25.569Z,17.50
2018-05-31T06:04:54.180Z,17.50
2018-05-31T06:07:22.661Z,17.70
2018-05-31T06:09:50.841Z,17.70
2018-05-31T06:12:18.689Z,17.70
2018-05-31T06:14:46.504Z,17.90
2018-05-31T06:17:14.463Z,18.00
2018-05-31T06:19:47.198Z,18.10
2018-05-31T06:22:14.799Z,18.00
2018-05-31T06:24:44.431Z,18.10
2018-05-31T06:27:12.040Z,18.20
2018-05-31T06:29:39.695Z,18.20
2018-05-31T06:32:07.589Z,18.40
2018-05-31T06:34:36.972Z,18.50
2018-05-31T06:37:10.634Z,18.50
2018-05-31T06:39:38.610Z,18.60
2018-05-31T06:42:06.384Z,18.70
2018-05-31T06:44:34.559Z,18.70
2018-05-31T06:47:02.172Z,18.80
2018-05-31T06:49:35.872Z,19.00
2018-05-31T06:52:03.584Z,19.00
2018-05-31T06:54:31.240Z,19.20
2018-05-31T06:56:58.889Z,19.30
2018-05-31T06:59:26.505Z,19.40
2018-05-31T07:01:54.907Z,19.70
2018-05-31T07:04:22.492Z,19.70
2018-05-31T07:06:50.159Z,19.90
2018-05-31T07:09:17.729Z,20.10
2018-05-31T07:11:45.346Z,20.20
2018-05-31T07:14:12.964Z,20.30
2018-05-31T07:16:40.600Z,20.50
2018-05-31T07:19:08.200Z,20.60
2018-05-31T07:21:35.832Z,20.70
2018-05-31T07:24:03.909Z,20.70
2018-05-31T07:26:32.467Z,20.90
2018-05-31T07:29:00.160Z,21.10
2018-05-31T07:31:27.774Z,21.20
2018-05-31T07:33:55.373Z,21.30
2018-05-31T07:36:22.960Z,21.40
2018-05-31T07:38:51.332Z,21.70
2018-05-31T07:41:19.970Z,21.70
2018-05-31T07:43:47.549Z,21.80
2018-05-31T07:46:15.181Z,22.00
2018-05-31T07:48:42.790Z,22.20
2018-05-31T07:51:10.432Z,22.40
2018-05-31T07:53:38.035Z,22.50
2018-05-31T07:56:06.393Z,22.80
2018-05-31T07:58:34.094Z,22.80
2018-05-31T08:01:01.800Z,23.00
2018-05-31T08:03:30.415Z,23.20
2018-05-31T08:06:00.194Z,23.60
2018-05-31T08:08:27.855Z,23.60
2018-05-31T08:10:56.215Z,23.90
2018-05-31T08:13:23.840Z,24.10
2018-05-31T08:15:52.801Z,24.20
2018-05-31T08:18:20.429Z,24.40
2018-05-31T08:20:48.027Z,24.60
2018-05-31T08:23:15.830Z,24.80
2018-05-31T08:25:43.440Z,24.90
2018-05-31T08:28:11.089Z,25.10
2018-05-31T08:30:38.708Z,25.20
2018-05-31T08:33:06.310Z,25.40
2018-05-31T08:35:33.925Z,25.60
2018-05-31T08:38:01.554Z,25.80
2018-05-31T08:40:29.919Z,26.00
2018-05-31T08:42:57.536Z,26.00
2018-05-31T08:45:25.146Z,26.20
2018-05-31T08:47:53.521Z,26.60
2018-05-31T08:50:21.901Z,26.60
2018-05-31T08:52:50.308Z,26.70
2018-05-31T08:55:17.904Z,26.70
2018-05-31T08:57:46.293Z,27.00
2018-05-31T09:00:13.950Z,26.90
2018-05-31T09:02:41.566Z,27.10
2018-05-31T09:05:09.232Z,27.30
2018-05-31T09:07:36.852Z,27.20
2018-05-31T09:10:04.480Z,27.40
2018-05-31T09:12:32.092Z,27.40
2018-05-31T09:15:00.449Z,27.70
2018-05-31T09:17:28.116Z,27.70
2018-05-31T09:19:55.689Z,27.80
2018-05-31T12:25:43.318Z,33.70
2018-05-31T12:28:10.955Z,33.70
2018-05-31T12:30:38.574Z,33.80
2018-05-31T12:33:06.209Z,33.90
2018-05-31T12:35:33.843Z,33.90
2018-05-31T12:38:01.452Z,33.90
2018-05-31T12:40:29.054Z,34.00
2018-05-31T12:42:56.700Z,34.10
2018-05-31T12:45:25.120Z,34.40
2018-05-31T12:47:52.724Z,34.40
2018-05-31T12:50:20.342Z,34.60
2018-05-31T12:52:47.974Z,34.70
2018-05-31T12:55:15.670Z,34.60
2018-05-31T12:57:43.309Z,34.60
2018-05-31T13:00:10.939Z,34.80
2018-05-31T13:02:39.304Z,34.90
2018-05-31T13:05:06.917Z,35.00
2018-05-31T13:07:34.517Z,35.00
2018-05-31T13:10:02.141Z,34.90
2018-05-31T13:12:29.760Z,34.60
2018-05-31T13:14:58.150Z,33.90
2018-05-31T13:17:25.770Z,33.80
2018-05-31T13:19:53.360Z,33.60
2018-05-31T13:22:21.770Z,33.80
2018-05-31T13:24:49.411Z,33.80
2018-05-31T13:27:17.021Z,34.10
2018-05-31T13:29:44.633Z,34.40
2018-05-31T13:32:12.230Z,34.50
2018-05-31T13:34:39.909Z,34.50
2018-05-31T13:37:07.500Z,34.60
2018-05-31T13:39:35.898Z,34.00
2018-05-31T13:42:03.551Z,34.10
2018-05-31T13:44:31.203Z,33.70
2018-05-31T13:46:59.607Z,33.00
2018-05-31T13:49:27.210Z,33.00
2018-05-31T13:51:54.858Z,32.90
2018-05-31T13:54:22.550Z,32.80
2018-05-31T13:56:50.968Z,32.60
2018-05-31T13:59:18.597Z,32.60
2018-05-31T14:01:47.004Z,32.40
2018-05-31T14:04:14.629Z,32.40
2018-05-31T14:06:43.050Z,32.10
2018-05-31T14:09:10.667Z,32.10
2018-05-31T14:11:39.081Z,31.90
2018-05-31T14:14:06.730Z,31.80
2018-05-31T14:16:34.450Z,31.70
2018-05-31T14:19:02.040Z,31.60
2018-05-31T14:21:30.508Z,31.40
2018-05-31T14:23:59.069Z,30.80
2018-05-31T14:26:26.695Z,30.80
2018-05-31T14:28:54.345Z,30.60
2018-05-31T14:31:22.020Z,30.50
2018-05-31T14:33:49.639Z,30.30
2018-05-31T14:36:18.055Z,30.00
2018-05-31T14:38:45.680Z,29.90
2018-05-31T14:41:14.059Z,29.90
2018-05-31T14:43:42.459Z,29.80
2018-05-31T14:46:10.090Z,29.80
2018-05-31T14:48:38.554Z,29.70
2018-05-31T14:51:06.169Z,29.70
2018-05-31T14:53:33.782Z,29.60
2018-05-31T14:56:01.431Z,29.60
2018-05-31T14:58:29.021Z,29.60
2018-05-31T15:00:57.402Z,29.60
2018-05-31T15:03:25.755Z,29.70
2018-05-31T15:05:55.806Z,29.70
2018-05-31T15:08:28.001Z,29.60
2018-05-31T15:10:56.534Z,29.50
2018-05-31T15:13:27.755Z,29.40
2018-05-31T15:16:02.669Z,29.30
2018-05-31T15:18:59.860Z,29.20
2018-05-31T15:21:37.200Z,29.20
2018-05-31T15:24:14.020Z,29.20
2018-05-31T15:26:59.592Z,29.10
2018-05-31T15:29:39.289Z,29.10
2018-05-31T15:32:29.467Z,29.00
2018-05-31T15:37:49.464Z,28.60
2018-05-31T15:40:18.168Z,28.50
2018-05-31T15:42:46.710Z,28.40
2018-05-31T15:45:15.088Z,28.30
2018-05-31T15:47:43.470Z,28.10
2018-05-31T15:50:11.856Z,27.90
2018-05-31T15:52:40.242Z,27.40
2018-05-31T15:55:07.910Z,27.40
2018-05-31T15:57:35.490Z,27.20
2018-05-31T16:00:03.130Z,26.60
2018-05-31T16:02:30.750Z,26.10
2018-05-31T16:04:58.369Z,25.50
2018-05-31T16:07:25.972Z,25.30
2018-05-31T16:09:53.604Z,25.00
2018-05-31T16:12:21.187Z,24.70
2018-05-31T16:14:48.791Z,24.60
2018-05-31T16:17:16.422Z,24.30
2018-05-31T16:19:44.813Z,23.80
2018-05-31T16:22:12.474Z,23.80
2018-05-31T16:24:40.126Z,23.60
2018-05-31T16:27:08.556Z,23.10
2018-05-31T16:29:36.215Z,23.00
2018-05-31T16:32:03.902Z,22.80
2018-05-31T16:34:31.647Z,22.70
2018-05-31T16:36:59.285Z,22.50
2018-05-31T16:39:26.894Z,22.00
2018-05-31T16:41:54.953Z,21.60
2018-05-31T16:44:22.561Z,21.30
2018-05-31T16:46:50.200Z,20.90
2018-05-31T16:49:18.594Z,20.60
2018-05-31T16:51:47.128Z,20.60
2018-05-31T16:54:16.386Z,20.60
2018-05-31T16:56:47.490Z,20.70
2018-05-31T16:59:16.230Z,20.70
2018-05-31T17:01:53.676Z,20.60
2018-05-31T17:04:21.700Z,20.60
2018-05-31T17:06:49.389Z,20.50
2018-05-31T17:09:17.770Z,20.40
2018-05-31T17:11:46.227Z,20.30
2018-05-31T17:14:13.914Z,20.30
2018-05-31T17:16:42.227Z,20.20
2018-05-31T17:19:10.684Z,20.00
2018-05-31T17:21:39.060Z,19.80
2018-05-31T17:24:07.884Z,19.80
2018-05-31T17:26:36.470Z,19.70
2018-05-31T17:29:04.530Z,19.70
2018-05-31T17:31:32.163Z,19.60
2018-05-31T17:34:00.630Z,19.70
2018-05-31T17:36:30.849Z,19.70
2018-05-31T17:38:58.562Z,19.60
2018-05-31T17:41:26.549Z,19.60
2018-05-31T17:43:54.340Z,19.60
2018-05-31T17:46:24.115Z,19.50
2018-05-31T17:48:51.990Z,19.50
2018-05-31T17:51:19.629Z,19.30
2018-05-31T17:53:47.220Z,19.30
2018-05-31T17:56:14.859Z,19.30
2018-05-31T17:58:42.560Z,19.40
2018-05-31T18:01:10.281Z,19.30
2018-05-31T18:03:37.930Z,19.20
2018-05-31T18:06:05.521Z,19.10
2018-05-31T18:08:33.123Z,19.20
2018-05-31T18:11:01.513Z,19.20
2018-05-31T18:13:29.154Z,19.10
2018-05-31T18:15:57.565Z,19.10
2018-05-31T18:18:25.214Z,19.10
2018-05-31T18:20:52.911Z,19.10
2018-05-31T18:23:20.492Z,19.10
2018-05-31T18:25:48.113Z,19.20
2018-05-31T18:28:15.719Z,19.10
2018-05-31T18:30:43.309Z,19.10
2018-05-31T18:33:11.700Z,19.00
2018-05-31T18:35:39.326Z,19.00
2018-05-31T18:38:06.950Z,19.00
2018-05-31T18:40:34.570Z,19.00
2018-05-31T18:43:02.991Z,19.00
2018-05-31T18:45:30.648Z,18.90
2018-05-31T18:47:58.249Z,19.00
2018-05-31T18:50:25.883Z,18.90
2018-05-31T18:52:53.534Z,18.80
2018-05-31T18:55:21.151Z,18.80
2018-05-31T18:57:49.575Z,18.60
2018-05-31T19:00:17.223Z,18.60
2018-05-31T19:02:44.910Z,18.60
2018-05-31T19:05:12.572Z,18.60
2018-05-31T19:07:44.174Z,18.60
2018-05-31T19:10:13.206Z,18.60
2018-05-31T19:18:44.244Z,18.60
2018-05-31T19:21:16.770Z,18.50
2018-05-31T19:23:56.481Z,18.50
2018-05-31T19:29:21.619Z,18.40
2018-05-31T19:31:49.537Z,18.20
2018-05-31T19:34:17.969Z,17.90
2018-05-31T19:36:51.358Z,17.90
2018-05-31T19:39:18.982Z,17.80
2018-05-31T19:41:47.370Z,17.70
2018-05-31T19:44:20.650Z,17.60
2018-05-31T19:46:49.023Z,17.60
2018-05-31T19:49:17.433Z,17.60
2018-05-31T19:51:50.673Z,17.60
2018-05-31T19:54:18.310Z,17.60
2018-05-31T19:56:46.530Z,17.60
2018-05-31T19:59:20.026Z,17.50
2018-05-31T20:01:54.109Z,17.40
2018-05-31T20:04:21.779Z,17.40
2018-05-31T20:06:49.370Z,17.40
2018-05-31T20:09:17.010Z,17.40
2018-05-31T20:11:45.362Z,17.40
2018-05-31T20:14:12.960Z,17.40
2018-05-31T20:16:41.339Z,17.20
2018-05-31T20:19:09.684Z,17.20
2018-05-31T20:21:37.305Z,17.20
2018-05-31T20:24:04.984Z,17.10
2018-05-31T20:26:32.675Z,17.00
2018-05-31T20:29:00.270Z,16.90
2018-05-31T20:31:27.943Z,16.90
2018-05-31T20:33:55.552Z,16.80
2018-05-31T20:36:23.240Z,16.80
2018-05-31T20:38:51.601Z,16.70
2018-05-31T20:41:19.986Z,16.70
2018-05-31T20:43:48.380Z,16.70
2018-05-31T20:46:16.830Z,16.70
2018-05-31T20:48:44.518Z,16.70
2018-05-31T20:51:13.096Z,16.70
2018-05-31T20:53:41.940Z,16.70
2018-05-31T20:56:09.717Z,16.70
2018-05-31T20:58:37.560Z,16.70
2018-05-31T21:01:05.388Z,16.60
2018-05-31T21:03:33.034Z,16.60
2018-05-31T21:06:02.200Z,16.60
2018-05-31T21:08:31.235Z,16.60
2018-05-31T21:11:01.002Z,16.60
2018-05-31T21:13:30.428Z,16.60
2018-05-31T21:16:00.420Z,16.50
2018-05-31T21:18:28.470Z,16.50
2018-05-31T21:20:57.435Z,16.50
2018-05-31T21:23:25.564Z,16.50
2018-05-31T21:25:54.100Z,16.50
2018-05-31T21:28:23.638Z,16.50
2018-05-31T21:30:52.463Z,16.40
2018-05-31T21:33:20.821Z,16.40
2018-05-31T21:35:48.750Z,16.30
2018-05-31T21:38:19.063Z,16.30
2018-05-31T21:40:47.438Z,16.30
2018-05-31T21:43:15.355Z,16.30
2018-05-31T21:45:43.340Z,16.30
2018-05-31T21:48:12.950Z,16.30
2018-05-31T21:50:41.464Z,16.40
2018-05-31T21:53:09.679Z,16.40
2018-05-31T21:55:37.757Z,16.40
2018-05-31T21:58:05.366Z,16.40
2018-05-31T22:00:38.652Z,16.40
2018-05-31T22:03:06.269Z,16.40
2018-05-31T22:05:33.923Z,16.40
2018-05-31T22:08:01.632Z,16.50
2018-05-31T22:10:30.587Z,16.50
2018-05-31T22:12:59.427Z,16.50
2018-05-31T22:15:27.076Z,16.60
2018-05-31T22:17:56.579Z,16.60
2018-05-31T22:20:24.239Z,16.60
2018-05-31T22:22:51.866Z,16.60
2018-05-31T22:25:20.138Z,16.70
2018-05-31T22:27:47.756Z,16.70
2018-05-31T22:30:15.419Z,16.70
2018-05-31T22:32:43.026Z,16.70
2018-05-31T22:35:11.666Z,16.70
2018-05-31T22:37:40.214Z,16.60
2018-05-31T22:40:07.886Z,16.60
2018-05-31T22:42:36.487Z,16.50
2018-05-31T22:48:05.469Z,16.40
2018-05-31T22:50:33.836Z,16.40
2018-05-31T22:53:02.230Z,16.40
2018-05-31T22:55:29.843Z,16.40
2018-05-31T22:57:57.449Z,16.40
2018-05-31T23:00:25.156Z,16.40
2018-05-31T23:02:52.753Z,16.50
2018-05-31T23:05:21.149Z,16.40
2018-05-31T23:07:48.770Z,16.40
2018-05-31T23:10:16.391Z,16.40
2018-05-31T23:12:43.988Z,16.40
2018-05-31T23:15:11.609Z,16.40
2018-05-31T23:17:39.236Z,16.40
2018-05-31T23:20:07.600Z,16.30
2018-05-31T23:22:35.188Z,16.20
2018-05-31T23:25:02.800Z,16.30
2018-05-31T23:27:30.400Z,16.20
2018-05-31T23:29:58.799Z,16.20
2018-05-31T23:32:26.395Z,16.20
2018-05-31T23:34:53.994Z,16.20
2018-05-31T23:37:22.353Z,16.20
2018-05-31T23:39:49.934Z,16.10
2018-05-31T23:42:18.355Z,16.10
2018-05-31T23:44:45.942Z,16.00
2018-05-31T23:47:13.528Z,16.10
2018-05-31T23:49:41.939Z,16.00
2018-05-31T23:52:09.570Z,16.00
2018-05-31T23:54:37.951Z,16.00
2018-05-31T23:57:06.317Z,16.00
2018-05-31T23:59:34.699Z,15.90
